Time;durP1;ratioP1;P1;durP2;ratioP2;P2;SDS_P1;SDS_P2;PMS_P1;PMS_P2;Temp;Humidity;BMP_temperature;BMP_pressure;BME280_temperature;BME280_humidity;BME280_pressure;Samples;Min_cycle;Max_cycle;Signal;HPM_P1;HPM_P2
2023/03/24 00:01:15;;;;;;;12.43;6.60;;;11.60;99.90;;;;;;6182387;23;20017;-86
2023/03/24 00:03:40;;;;;;;11.82;6.47;;;11.60;99.90;;;;;;6181936;23;20437;-83
2023/03/24 00:06:08;;;;;;;13.00;5.82;;;11.60;99.90;;;;;;6156286;23;20017;-85
2023/03/24 00:08:35;;;;;;;12.05;6.28;;;11.60;99.90;;;;;;6182533;23;20013;-85
2023/03/24 00:11:05;;;;;;;13.80;6.82;;;11.60;99.90;;;;;;6155998;23;20017;-83
2023/03/24 00:13:31;;;;;;;12.25;6.28;;;11.60;99.90;;;;;;6181469;23;20350;-82
2023/03/24 00:15:58;;;;;;;12.82;6.38;;;11.60;99.90;;;;;;6182764;23;20009;-83
2023/03/24 00:18:24;;;;;;;11.95;6.65;;;11.60;99.90;;;;;;6180390;23;20017;-82
2023/03/24 00:20:57;;;;;;;11.10;5.97;;;11.60;99.90;;;;;;6182635;23;20009;-83
2023/03/24 00:23:32;;;;;;;11.43;6.10;;;11.60;99.90;;;;;;6180926;23;20072;-82
2023/03/24 00:26:01;;;;;;;12.70;6.45;;;11.50;99.90;;;;;;6155884;23;20485;-83
2023/03/24 00:28:30;;;;;;;12.77;6.07;;;11.50;99.90;;;;;;6154344;23;20107;-83
2023/03/24 00:30:56;;;;;;;13.07;6.13;;;11.50;99.90;;;;;;6182088;23;20013;-83
2023/03/24 00:33:22;;;;;;;11.43;6.32;;;11.50;99.90;;;;;;6154539;23;20013;-83
2023/03/24 00:35:48;;;;;;;12.98;6.38;;;11.50;99.90;;;;;;6182272;23;20088;-82
2023/03/24 00:38:14;;;;;;;11.77;6.35;;;11.50;99.90;;;;;;6154746;23;20053;-83
2023/03/24 00:40:44;;;;;;;14.25;6.43;;;11.50;99.90;;;;;;6181591;23;20679;-83
2023/03/24 00:43:12;;;;;;;11.02;6.57;;;11.50;99.90;;;;;;6181298;23;20020;-83
2023/03/24 00:45:44;;;;;;;11.63;6.45;;;11.50;99.90;;;;;;6180703;23;20013;-83
2023/03/24 00:48:14;;;;;;;11.32;5.80;;;11.50;99.90;;;;;;6181748;23;20012;-82
2023/03/24 00:50:45;;;;;;;9.90;5.93;;;11.50;99.90;;;;;;6182163;23;20043;-83
2023/03/24 00:53:11;;;;;;;;;;;11.50;99.90;;;;;;6181183;23;20024;-83
2023/03/24 00:55:36;;;;;;;12.63;6.13;;;11.50;99.90;;;;;;6181322;23;19919;-83
2023/03/24 00:58:03;;;;;;;10.43;6.00;;;11.50;99.90;;;;;;6181256;23;20363;-82
2023/03/24 01:00:29;;;;;;;10.63;5.70;;;11.50;99.90;;;;;;6181472;23;20097;-83
2023/03/24 01:02:56;;;;;;;10.82;5.53;;;11.50;99.90;;;;;;6182396;23;20082;-83
2023/03/24 01:05:26;;;;;;;10.30;6.30;;;11.50;99.90;;;;;;6154378;23;20021;-83
2023/03/24 01:08:02;;;;;;;11.68;6.00;;;11.50;99.90;;;;;;6182492;23;20017;-83
2023/03/24 01:10:28;;;;;;;10.50;5.95;;;11.50;99.90;;;;;;6180959;23;20013;-83
2023/03/24 01:12:55;;;;;;;12.10;6.10;;;11.50;99.90;;;;;;6154101;23;20021;-83
2023/03/24 01:15:23;;;;;;;10.38;5.80;;;11.50;99.90;;;;;;6181115;23;20045;-83
2023/03/24 01:17:51;;;;;;;10.55;6.43;;;11.50;99.90;;;;;;6179877;23;20284;-83
2023/03/24 01:20:18;;;;;;;9.23;5.93;;;11.60;99.90;;;;;;6153683;23;20013;-83
2023/03/24 01:22:44;;;;;;;10.20;5.47;;;11.60;99.90;;;;;;6182139;23;20357;-83
2023/03/24 01:25:15;;;;;;;10.80;5.70;;;11.60;99.90;;;;;;6155018;23;20017;-83
2023/03/24 01:27:42;;;;;;;;;;;11.60;99.90;;;;;;6182082;23;20013;-83
2023/03/24 01:30:09;;;;;;;9.60;5.90;;;11.50;99.90;;;;;;6155100;23;20001;-83
2023/03/24 01:32:35;;;;;;;10.50;5.93;;;11.50;99.90;;;;;;6181554;23;20008;-82
2023/03/24 01:35:00;;;;;;;10.80;5.22;;;11.50;99.90;;;;;;6181699;23;20430;-83
2023/03/24 01:37:26;;;;;;;11.27;5.75;;;11.60;99.90;;;;;;6180057;23;20177;-82
2023/03/24 01:39:51;;;;;;;11.10;6.03;;;11.60;99.90;;;;;;6182258;23;20308;-83
2023/03/24 01:42:20;;;;;;;11.50;5.90;;;11.60;99.90;;;;;;6181358;23;20382;-83
2023/03/24 01:44:49;;;;;;;10.55;5.75;;;11.60;99.90;;;;;;6181064;23;20087;-82
2023/03/24 01:47:16;;;;;;;9.95;6.07;;;11.60;99.90;;;;;;6180100;23;20017;-83
2023/03/24 01:49:47;;;;;;;10.18;5.53;;;11.60;99.90;;;;;;6181137;23;20009;-83
2023/03/24 01:52:24;;;;;;;11.88;6.20;;;11.60;99.90;;;;;;6180976;23;20017;-83
2023/03/24 01:55:06;;;;;;;10.63;5.82;;;11.60;99.90;;;;;;6181304;23;20012;-83
2023/03/24 01:57:37;;;;;;;10.57;5.93;;;11.60;99.90;;;;;;6181922;23;20013;-83
2023/03/24 02:00:12;;;;;;;11.75;6.63;;;11.60;99.90;;;;;;6155714;23;20017;-84
2023/03/24 02:02:41;;;;;;;11.25;5.72;;;11.70;99.90;;;;;;6180516;23;20009;-83
2023/03/24 02:05:09;;;;;;;10.70;5.97;;;11.70;99.90;;;;;;6181073;23;20087;-82
2023/03/24 02:08:06;;;;;;;10.57;6.30;;;11.70;99.90;;;;;;6180745;23;20012;-83
2023/03/24 02:10:33;;;;;;;10.05;5.40;;;11.80;99.90;;;;;;6155340;23;20100;-83
2023/03/24 02:13:00;;;;;;;10.80;6.00;;;11.70;99.90;;;;;;6180687;23;20013;-84
2023/03/24 02:15:27;;;;;;;8.68;5.30;;;11.70;99.90;;;;;;6182319;23;20052;-83
2023/03/24 02:18:17;;;;;;;11.05;6.18;;;11.70;99.90;;;;;;6154440;23;20223;-83
2023/03/24 02:21:15;;;;;;;11.48;6.10;;;11.80;99.90;;;;;;6154369;23;20075;-83
2023/03/24 02:23:48;;;;;;;9.30;5.88;;;11.80;99.90;;;;;;6089860;23;20499;-82
2023/03/24 02:26:38;;;;;;;10.95;6.28;;;11.80;99.90;;;;;;6066157;23;20018;-83
2023/03/24 02:29:43;;;;;;;9.82;6.03;;;11.80;99.90;;;;;;6089980;23;20029;-83
2023/03/24 02:32:18;;;;;;;9.98;5.97;;;11.80;99.90;;;;;;6089545;23;20030;-83
2023/03/24 02:34:49;;;;;;;10.93;6.43;;;11.80;99.90;;;;;;6089733;23;20028;-82
2023/03/24 02:37:31;;;;;;;;;;;11.80;99.90;;;;;;6089490;23;20018;-83
2023/03/24 02:40:31;;;;;;;9.55;6.22;;;11.80;99.90;;;;;;6090501;23;19917;-83
2023/03/24 02:43:35;;;;;;;9.70;6.10;;;11.80;99.90;;;;;;6089868;23;20436;-82
2023/03/24 02:46:27;;;;;;;9.35;6.18;;;11.80;99.90;;;;;;6091991;23;20347;-83
2023/03/24 02:49:24;;;;;;;10.25;5.85;;;11.90;99.90;;;;;;6118039;23;20073;-83
2023/03/24 02:52:29;;;;;;;10.18;6.38;;;11.90;99.90;;;;;;6117921;23;20020;-82
2023/03/24 02:55:01;;;;;;;10.63;6.28;;;11.80;99.90;;;;;;6086716;23;20066;-82
2023/03/24 02:57:53;;;;;;;10.45;6.32;;;11.90;99.90;;;;;;6093926;23;20021;-82
2023/03/24 03:00:31;;;;;;;10.25;6.45;;;11.90;99.90;;;;;;6171209;23;20017;-83
2023/03/24 03:03:04;;;;;;;9.18;6.13;;;11.90;99.90;;;;;;6181393;23;20323;-82
2023/03/24 03:05:43;;;;;;;10.32;6.18;;;11.90;99.90;;;;;;6180999;23;20005;-83
2023/03/24 03:08:13;;;;;;;9.55;6.43;;;12.00;99.90;;;;;;6181491;23;20017;-83
2023/03/24 03:10:43;;;;;;;10.57;7.00;;;11.90;99.90;;;;;;6180973;23;20441;-82
2023/03/24 03:13:20;;;;;;;10.77;7.10;;;12.00;99.90;;;;;;6179386;23;20013;-83
2023/03/24 03:15:50;;;;;;;9.70;7.00;;;12.00;99.90;;;;;;6182582;23;20051;-82
2023/03/24 03:18:22;;;;;;;11.02;6.93;;;12.00;99.90;;;;;;6182410;23;20013;-82
2023/03/24 03:20:52;;;;;;;9.07;6.47;;;12.00;99.90;;;;;;6183215;23;20382;-82
2023/03/24 03:23:29;;;;;;;10.05;6.55;;;12.00;99.90;;;;;;6182116;23;20013;-82
2023/03/24 03:26:04;;;;;;;10.13;6.57;;;12.00;99.90;;;;;;6182255;23;20084;-82
2023/03/24 03:28:32;;;;;;;8.38;6.13;;;12.00;99.90;;;;;;6181603;23;20021;-82
2023/03/24 03:31:04;;;;;;;8.75;6.28;;;12.00;99.90;;;;;;6183345;23;20017;-82
2023/03/24 03:33:36;;;;;;;9.95;6.80;;;12.00;99.90;;;;;;6182778;23;20009;-82
2023/03/24 03:36:15;;;;;;;10.25;7.03;;;12.10;99.90;;;;;;6184228;23;20013;-83
2023/03/24 03:38:54;;;;;;;9.25;6.43;;;12.10;99.90;;;;;;6183983;23;20017;-83
2023/03/24 03:41:20;;;;;;;10.30;7.40;;;12.10;99.90;;;;;;6183252;23;20334;-83
2023/03/24 03:43:48;;;;;;;10.18;6.85;;;12.00;99.90;;;;;;6182964;23;20006;-82
2023/03/24 03:46:15;;;;;;;9.20;6.80;;;12.10;99.90;;;;;;6155687;23;20021;-82
2023/03/24 03:48:42;;;;;;;8.65;5.65;;;12.00;99.90;;;;;;6181126;23;20017;-83
2023/03/24 03:51:08;;;;;;;8.70;5.45;;;12.10;99.90;;;;;;6182787;23;20047;-83
2023/03/24 03:53:40;;;;;;;7.47;4.03;;;12.30;99.90;;;;;;6155610;23;20052;-82
2023/03/24 03:56:06;;;;;;;7.35;3.50;;;12.30;99.90;;;;;;6183370;23;20017;-84
2023/03/24 03:58:32;;;;;;;6.53;2.45;;;12.30;99.90;;;;;;6182861;23;20005;-84
2023/03/24 04:00:58;;;;;;;5.60;2.55;;;12.20;99.90;;;;;;6183898;23;20068;-84
2023/03/24 04:04:05;;;;;;;6.93;3.00;;;12.10;99.90;;;;;;6181528;23;20012;-83
2023/03/24 04:06:49;;;;;;;7.65;2.80;;;12.00;99.90;;;;;;6144227;23;20084;-83
2023/03/24 04:09:32;;;;;;;7.93;3.30;;;11.90;99.90;;;;;;6156805;23;20009;-84
2023/03/24 04:12:20;;;;;;;7.10;2.67;;;11.90;99.90;;;;;;6183514;23;20019;-83
2023/03/24 04:14:56;;;;;;;8.98;2.90;;;11.80;99.90;;;;;;6155385;23;20086;-84
2023/03/24 04:17:53;;;;;;;9.23;3.22;;;11.60;99.90;;;;;;6154877;23;20020;-83
2023/03/24 04:20:27;;;;;;;8.02;2.83;;;11.50;99.90;;;;;;6181199;23;20020;-84
2023/03/24 04:23:27;;;;;;;9.45;3.00;;;11.40;99.90;;;;;;6155445;23;20096;-84
2023/03/24 04:26:00;;;;;;;10.25;3.58;;;11.40;99.90;;;;;;6182207;23;20009;-84
2023/03/24 04:28:56;;;;;;;9.50;3.30;;;11.30;99.90;;;;;;6182284;23;20342;-83
2023/03/24 04:31:30;;;;;;;9.90;3.30;;;11.30;99.90;;;;;;6181854;23;20017;-84
2023/03/24 04:34:02;;;;;;;10.77;3.50;;;11.30;99.90;;;;;;6182567;23;20017;-84
2023/03/24 04:36:41;;;;;;;11.35;4.00;;;11.20;99.90;;;;;;6182214;23;20057;-83
2023/03/24 04:39:12;;;;;;;8.93;3.00;;;11.10;99.90;;;;;;6181591;23;20013;-83
2023/03/24 04:41:40;;;;;;;10.48;3.15;;;11.10;99.90;;;;;;6183240;23;20017;-83
2023/03/24 04:44:06;;;;;;;8.88;2.88;;;11.10;99.90;;;;;;6182306;23;20036;-85
2023/03/24 04:46:32;;;;;;;9.07;2.65;;;11.10;99.90;;;;;;6182425;23;20108;-84
2023/03/24 04:48:58;;;;;;;9.80;2.47;;;11.00;99.90;;;;;;6182389;23;20044;-83
2023/03/24 04:51:25;;;;;;;10.85;3.42;;;11.00;99.90;;;;;;6182216;23;20056;-84
2023/03/24 04:53:51;;;;;;;10.55;3.08;;;10.90;99.90;;;;;;6182550;23;20005;-85
2023/03/24 04:56:42;;;;;;;13.77;3.60;;;11.00;99.90;;;;;;6181364;23;20446;-84
2023/03/24 04:59:08;;;;;;;10.82;3.33;;;11.00;99.90;;;;;;6182378;23;20013;-84
2023/03/24 05:01:36;;;;;;;11.93;3.58;;;11.00;99.90;;;;;;6155581;23;20023;-84
2023/03/24 05:04:03;;;;;;;9.98;3.40;;;10.90;99.90;;;;;;6180730;23;20373;-84
2023/03/24 05:06:29;;;;;;;10.40;3.40;;;10.90;99.90;;;;;;6181902;23;20072;-84
2023/03/24 05:08:57;;;;;;;11.48;3.55;;;10.90;99.90;;;;;;6182866;23;20020;-85
2023/03/24 05:11:24;;;;;;;13.77;3.70;;;10.80;99.90;;;;;;6154836;23;20013;-84
2023/03/24 05:13:49;;;;;;;13.30;3.90;;;10.80;99.90;;;;;;6157287;23;20041;-84
2023/03/24 05:16:15;;;;;;;9.35;3.70;;;10.70;99.90;;;;;;6153647;23;20323;-84
2023/03/24 05:18:41;;;;;;;14.55;4.32;;;10.80;99.90;;;;;;6182551;23;20017;-84
2023/03/24 05:21:07;;;;;;;12.40;3.45;;;10.80;99.90;;;;;;6181927;23;20460;-84
2023/03/24 05:23:33;;;;;;;11.48;3.60;;;10.80;99.90;;;;;;6182473;23;20048;-83
2023/03/24 05:25:58;;;;;;;10.25;3.60;;;10.80;99.90;;;;;;6183553;23;20100;-84
2023/03/24 05:28:24;;;;;;;11.90;3.47;;;10.80;99.90;;;;;;6182381;23;20069;-84
2023/03/24 05:30:50;;;;;;;14.52;4.00;;;10.80;99.90;;;;;;6156562;23;20009;-84
2023/03/24 05:33:16;;;;;;;9.90;3.60;;;10.70;99.90;;;;;;6155175;23;20377;-83
2023/03/24 05:35:41;;;;;;;11.65;3.25;;;10.60;99.90;;;;;;6183272;23;20088;-85
2023/03/24 05:38:07;;;;;;;12.65;3.42;;;10.60;99.90;;;;;;6156964;23;20020;-84
2023/03/24 05:40:33;;;;;;;14.15;3.10;;;10.60;99.90;;;;;;6156852;23;20017;-84
2023/03/24 05:42:58;;;;;;;13.10;3.85;;;10.60;99.90;;;;;;6186264;23;20013;-84
2023/03/24 05:45:24;;;;;;;13.20;3.80;;;10.50;99.90;;;;;;6172436;23;20327;-83
2023/03/24 05:47:50;;;;;;;11.35;3.45;;;10.50;99.90;;;;;;6183155;23;20371;-84
2023/03/24 05:50:16;;;;;;;12.73;3.17;;;10.40;99.90;;;;;;6184528;23;20020;-83
2023/03/24 05:52:41;;;;;;;11.20;3.00;;;10.40;99.90;;;;;;6184089;23;20012;-86
2023/03/24 05:55:08;;;;;;;11.35;2.88;;;10.30;99.90;;;;;;6186053;23;20044;-84
2023/03/24 05:57:35;;;;;;;14.70;3.22;;;10.20;99.90;;;;;;6189212;23;20041;-85
2023/03/24 06:00:06;;;;;;;14.27;3.90;;;10.20;99.90;;;;;;6186548;23;20051;-84
2023/03/24 06:02:33;;;;;;;;;;;10.20;99.90;;;;;;6184339;23;20449;-84
2023/03/24 06:05:00;;;;;;;11.57;3.13;;;10.00;99.90;;;;;;6184771;23;19919;-83
2023/03/24 06:07:29;;;;;;;10.73;3.20;;;10.10;99.90;;;;;;6180351;23;20070;-82
2023/03/24 06:09:56;;;;;;;10.20;3.47;;;10.00;99.90;;;;;;6181499;23;20020;-83
2023/03/24 06:12:22;;;;;;;12.65;3.63;;;9.90;99.90;;;;;;6180537;23;20325;-84
2023/03/24 06:14:48;;;;;;;10.70;3.55;;;10.00;99.90;;;;;;6183365;23;20016;-82
2023/03/24 06:17:14;;;;;;;13.43;3.80;;;10.00;99.90;;;;;;6184320;23;20008;-84
2023/03/24 06:19:47;;;;;;;11.98;3.45;;;10.00;99.90;;;;;;6181535;23;20013;-85
2023/03/24 06:22:13;;;;;;;12.57;3.35;;;10.00;99.90;;;;;;6181448;23;20024;-85
2023/03/24 06:24:39;;;;;;;13.75;3.50;;;10.00;99.90;;;;;;6182973;23;20009;-83
2023/03/24 06:27:07;;;;;;;10.68;3.50;;;10.10;99.90;;;;;;6180053;23;20337;-84
2023/03/24 06:29:35;;;;;;;10.45;2.83;;;10.10;99.90;;;;;;6179973;23;20069;-84
2023/03/24 06:32:01;;;;;;;10.73;3.03;;;10.20;99.90;;;;;;6182699;23;20009;-84
2023/03/24 06:34:28;;;;;;;11.57;3.13;;;10.30;99.90;;;;;;6182835;23;20072;-84
2023/03/24 06:36:54;;;;;;;10.30;3.45;;;10.30;99.90;;;;;;6181874;23;20092;-84
2023/03/24 06:39:20;;;;;;;11.02;3.50;;;10.30;99.90;;;;;;6180410;23;20038;-85
2023/03/24 06:41:46;;;;;;;10.68;3.20;;;10.40;99.90;;;;;;6181086;23;20092;-83
2023/03/24 06:44:12;;;;;;;12.43;3.70;;;10.40;99.90;;;;;;6179824;23;20020;-85
2023/03/24 06:46:39;;;;;;;13.43;3.40;;;10.40;99.90;;;;;;6181294;23;20326;-85
2023/03/24 06:49:05;;;;;;;13.95;3.78;;;10.40;99.90;;;;;;6182447;23;20016;-85
2023/03/24 06:51:30;;;;;;;14.18;3.80;;;10.40;99.90;;;;;;6181822;23;20009;-85
2023/03/24 06:53:57;;;;;;;16.45;4.47;;;10.40;99.90;;;;;;6182994;23;20048;-83
2023/03/24 06:56:23;;;;;;;11.65;3.47;;;10.50;99.90;;;;;;6182999;23;20016;-83
2023/03/24 06:58:49;;;;;;;16.00;3.90;;;10.60;99.90;;;;;;6157072;23;20323;-85
2023/03/24 07:01:15;;;;;;;11.23;3.45;;;10.60;99.90;;;;;;6182987;23;20020;-84
2023/03/24 07:03:41;;;;;;;13.10;3.50;;;10.60;99.90;;;;;;6183027;23;20013;-86
2023/03/24 07:06:08;;;;;;;13.05;3.40;;;10.70;99.90;;;;;;6183537;23;20005;-86
2023/03/24 07:08:34;;;;;;;12.18;3.40;;;10.70;99.90;;;;;;6183539;23;20045;-84
2023/03/24 07:11:01;;;;;;;13.75;3.80;;;10.70;99.90;;;;;;6182001;23;20064;-84
2023/03/24 07:13:27;;;;;;;12.80;3.40;;;10.80;99.90;;;;;;6181136;23;20024;-84
2023/03/24 07:15:53;;;;;;;13.27;3.40;;;10.80;99.90;;;;;;6181886;23;20036;-84
2023/03/24 07:18:18;;;;;;;13.60;3.70;;;10.80;99.90;;;;;;6181637;23;20009;-84
2023/03/24 07:20:44;;;;;;;15.50;3.70;;;10.90;99.90;;;;;;6183563;23;20016;-84
2023/03/24 07:23:12;;;;;;;15.02;3.95;;;10.90;99.90;;;;;;6181686;23;20013;-83
2023/03/24 07:25:39;;;;;;;15.15;3.65;;;10.80;99.90;;;;;;6152022;23;20387;-82
2023/03/24 07:28:05;;;;;;;15.43;4.15;;;10.80;99.90;;;;;;6156114;23;20056;-83
2023/03/24 07:30:31;;;;;;;16.27;3.83;;;10.80;99.90;;;;;;6179630;23;20446;-82
2023/03/24 07:32:56;;;;;;;15.20;3.90;;;10.90;99.90;;;;;;6180507;23;20083;-82
2023/03/24 07:35:22;;;;;;;15.50;3.75;;;10.90;99.90;;;;;;6180867;23;20073;-83
2023/03/24 07:37:49;;;;;;;16.45;4.38;;;11.00;99.90;;;;;;6181261;23;20017;-82
2023/03/24 07:40:15;;;;;;;17.35;4.55;;;11.10;99.90;;;;;;6177306;23;20017;-82
2023/03/24 07:42:42;;;;;;;16.27;4.07;;;11.20;99.90;;;;;;6181703;23;20379;-84
2023/03/24 07:45:10;;;;;;;17.10;4.22;;;11.20;99.90;;;;;;6181086;23;20074;-82
2023/03/24 07:47:37;;;;;;;14.38;3.88;;;11.20;99.90;;;;;;6182331;23;20330;-82
2023/03/24 07:50:08;;;;;;;15.65;4.05;;;11.30;99.90;;;;;;6181043;23;20025;-82
2023/03/24 07:52:38;;;;;;;;;;;11.20;99.90;;;;;;6184115;23;20017;-83
2023/03/24 07:55:07;;;;;;;14.52;4.72;;;11.30;99.90;;;;;;6182126;23;19912;-83
2023/03/24 07:57:36;;;;;;;17.75;4.50;;;11.30;99.90;;;;;;6184252;23;20358;-89
2023/03/24 08:00:08;;;;;;;16.20;4.03;;;11.30;99.90;;;;;;6181881;23;20025;-85
2023/03/24 08:02:33;;;;;;;19.23;4.82;;;11.30;99.90;;;;;;6181657;23;20017;-85
2023/03/24 08:04:59;;;;;;;16.17;4.47;;;11.30;99.90;;;;;;6182104;23;20071;-84
2023/03/24 08:07:24;;;;;;;20.52;5.15;;;11.40;99.90;;;;;;6155325;23;20465;-81
2023/03/24 08:09:50;;;;;;;17.58;4.78;;;11.50;99.90;;;;;;6154788;23;20017;-85
2023/03/24 08:12:15;;;;;;;18.90;5.18;;;11.60;99.90;;;;;;6181272;23;20017;-85
2023/03/24 08:14:41;;;;;;;18.08;4.30;;;11.70;99.90;;;;;;6183075;23;20032;-84
2023/03/24 08:17:08;;;;;;;19.00;4.70;;;11.90;99.90;;;;;;6182078;23;20013;-86
2023/03/24 08:19:33;;;;;;;20.08;4.32;;;11.90;99.90;;;;;;6182886;23;20013;-84
2023/03/24 08:21:59;;;;;;;16.08;4.10;;;12.00;99.90;;;;;;6183505;23;20005;-84
2023/03/24 08:24:24;;;;;;;16.48;4.45;;;12.10;99.90;;;;;;6179997;23;20068;-82
2023/03/24 08:26:51;;;;;;;22.27;5.65;;;12.20;99.90;;;;;;6183686;23;20059;-84
2023/03/24 08:29:17;;;;;;;18.33;4.40;;;12.10;99.90;;;;;;6180334;23;20062;-85
2023/03/24 08:31:42;;;;;;;16.35;4.53;;;12.20;99.90;;;;;;6183963;23;20517;-84
2023/03/24 08:34:10;;;;;;;18.70;4.68;;;12.30;99.90;;;;;;6186021;23;20013;-84
2023/03/24 08:36:36;;;;;;;13.73;3.70;;;12.30;99.90;;;;;;6190351;23;20024;-84
2023/03/24 08:39:05;;;;;;;18.38;4.53;;;12.30;99.90;;;;;;6187363;23;20041;-86
2023/03/24 08:41:33;;;;;;;14.52;3.83;;;12.30;99.90;;;;;;6184747;23;20091;-86
2023/03/24 08:44:03;;;;;;;15.85;4.28;;;12.20;99.90;;;;;;6184162;23;20020;-87
2023/03/24 08:46:30;;;;;;;18.55;4.85;;;12.30;99.90;;;;;;6181511;23;20091;-88
2023/03/24 08:48:57;;;;;;;18.23;4.45;;;12.50;99.90;;;;;;6183684;23;20037;-85
2023/03/24 08:51:24;;;;;;;14.93;3.63;;;12.60;99.90;;;;;;6156776;23;20020;-89
2023/03/24 08:53:51;;;;;;;15.68;3.60;;;12.70;99.90;;;;;;6184606;23;20017;-87
2023/03/24 08:56:18;;;;;;;12.57;3.35;;;12.50;99.90;;;;;;6184474;23;20009;-86
2023/03/24 08:58:47;;;;;;;15.30;4.40;;;12.60;99.90;;;;;;6186661;23;20013;-89
2023/03/24 09:01:13;;;;;;;16.27;3.72;;;12.50;99.90;;;;;;6187415;23;20017;-90
2023/03/24 09:03:38;;;;;;;16.30;4.03;;;12.60;99.90;;;;;;6188441;23;20032;-90
2023/03/24 09:06:04;;;;;;;15.48;3.85;;;12.80;99.90;;;;;;6189523;23;20013;-89
2023/03/24 09:08:30;;;;;;;14.98;3.70;;;12.80;99.90;;;;;;6187768;23;20009;-90
2023/03/24 09:10:56;;;;;;;17.30;4.55;;;12.90;99.90;;;;;;6165909;23;20044;-87
2023/03/24 09:13:23;;;;;;;16.67;4.53;;;13.00;99.90;;;;;;6198058;23;20013;-90
2023/03/24 09:15:51;;;;;;;14.57;4.45;;;12.90;99.90;;;;;;6190721;23;20080;-91
2023/03/24 09:18:18;;;;;;;16.00;3.90;;;13.00;99.90;;;;;;6158445;23;20073;-88
2023/03/24 09:20:44;;;;;;;13.98;3.80;;;13.10;99.90;;;;;;6163483;23;19997;-90
2023/03/24 09:23:10;;;;;;;15.73;4.53;;;13.00;99.90;;;;;;6193782;23;20012;-91
2023/03/24 09:25:36;;;;;;;16.25;3.97;;;13.00;99.90;;;;;;6195368;23;20009;-90
2023/03/24 09:28:01;;;;;;;14.27;3.28;;;12.90;99.90;;;;;;6177868;23;20012;-92
2023/03/24 09:30:27;;;;;;;16.00;4.28;;;12.70;99.90;;;;;;6202504;23;20031;-88
2023/03/24 09:32:53;;;;;;;14.15;3.65;;;12.50;99.90;;;;;;6192426;23;20009;-91
2023/03/24 09:35:19;;;;;;;14.82;3.70;;;12.40;99.90;;;;;;6166995;23;20016;-90
2023/03/24 09:37:45;;;;;;;14.82;3.60;;;12.30;99.90;;;;;;6195205;23;20106;-88
2023/03/24 09:40:24;;;;;;;15.63;4.10;;;12.40;99.90;;;;;;6142456;23;20025;-91
2023/03/24 09:42:56;;;;;;;12.90;3.15;;;12.50;99.90;;;;;;6192775;23;20012;-91
2023/03/24 09:45:25;;;;;;;12.05;2.95;;;12.70;99.90;;;;;;6180208;23;20127;-87
2023/03/24 09:48:40;;;;;;;13.75;3.67;;;12.70;99.90;;;;;;6201430;23;20005;-86
2023/03/24 09:51:23;;;;;;;13.73;3.70;;;12.80;99.90;;;;;;6183058;23;20005;-87
2023/03/24 09:54:07;;;;;;;14.00;3.67;;;12.70;99.90;;;;;;6203641;23;20064;-88
2023/03/24 09:56:36;;;;;;;14.95;3.70;;;12.70;99.90;;;;;;6199059;23;20068;-85
2023/03/24 09:59:17;;;;;;;11.57;3.03;;;12.70;99.90;;;;;;6157000;23;20044;-87
2023/03/24 10:01:43;;;;;;;15.15;3.65;;;12.80;99.90;;;;;;6158919;23;20027;-88
2023/03/24 10:04:21;;;;;;;18.10;4.20;;;12.90;99.90;;;;;;6182978;23;20045;-90
2023/03/24 10:06:52;;;;;;;18.98;4.57;;;12.90;99.90;;;;;;6180325;23;20280;-87
2023/03/24 10:09:24;;;;;;;13.35;3.55;;;13.00;99.90;;;;;;6183278;23;20017;-86
2023/03/24 10:12:03;;;;;;;13.70;3.28;;;13.10;99.90;;;;;;6183885;23;20084;-88
2023/03/24 10:14:48;;;;;;;15.30;4.00;;;13.00;99.90;;;;;;6181781;23;20013;-89
2023/03/24 10:17:42;;;;;;;16.30;3.65;;;12.90;99.90;;;;;;6182550;23;20013;-88
2023/03/24 10:20:26;;;;;;;15.00;4.05;;;12.80;99.90;;;;;;6181322;23;20020;-88
2023/03/24 10:23:00;;;;;;;12.05;3.00;;;12.60;99.90;;;;;;6182393;23;20020;-86
2023/03/24 10:25:32;;;;;;;12.77;3.50;;;12.60;99.90;;;;;;6180760;23;20358;-86
2023/03/24 10:28:08;;;;;;;11.13;3.33;;;12.50;99.90;;;;;;6181969;23;20024;-86
2023/03/24 10:30:39;;;;;;;13.02;3.45;;;12.60;99.90;;;;;;6181987;23;20449;-89
2023/03/24 10:33:04;;;;;;;13.05;3.53;;;12.90;99.90;;;;;;6184171;23;20013;-89
2023/03/24 10:35:54;;;;;;;15.68;3.83;;;13.00;99.90;;;;;;6181552;23;20063;-88
2023/03/24 10:38:21;;;;;;;13.57;4.22;;;13.10;99.90;;;;;;6155130;23;20017;-86
2023/03/24 10:40:48;;;;;;;15.60;3.97;;;13.20;99.90;;;;;;6183633;23;20017;-87
2023/03/24 10:43:16;;;;;;;13.00;3.58;;;13.30;99.90;;;;;;6183821;23;20088;-88
2023/03/24 10:45:46;;;;;;;12.65;3.15;;;13.30;99.90;;;;;;6184499;23;20009;-90
2023/03/24 10:48:13;;;;;;;13.30;3.92;;;13.30;99.90;;;;;;6158149;23;20102;-88
2023/03/24 10:50:44;;;;;;;14.57;3.55;;;13.40;99.90;;;;;;6166418;23;20016;-90
2023/03/24 10:53:18;;;;;;;15.20;3.40;;;13.50;99.90;;;;;;6192446;23;20013;-93
2023/03/24 10:55:44;;;;;;;13.82;3.30;;;13.60;99.90;;;;;;6186173;23;20019;-93
2023/03/24 10:58:20;;;;;;;11.35;3.15;;;13.70;99.90;;;;;;6181085;23;20009;-86
2023/03/24 11:00:46;;;;;;;10.55;2.90;;;13.80;99.90;;;;;;6182408;23;20035;-88
2023/03/24 11:03:17;;;;;;;13.25;3.03;;;13.80;99.90;;;;;;6153584;23;20023;-90
2023/03/24 11:05:44;;;;;;;11.77;2.88;;;13.80;99.90;;;;;;6131951;23;20096;-90
2023/03/24 11:08:20;;;;;;;10.55;2.95;;;13.90;99.90;;;;;;6183925;23;20028;-91
2023/03/24 11:10:46;;;;;;;13.27;3.03;;;13.90;99.90;;;;;;6184020;23;20013;-87
2023/03/24 11:13:22;;;;;;;10.65;2.50;;;13.90;99.90;;;;;;6154896;23;20099;-87
2023/03/24 11:16:04;;;;;;;12.35;3.50;;;13.90;99.90;;;;;;6156239;23;20023;-86
2023/03/24 11:18:30;;;;;;;14.15;3.38;;;13.90;99.90;;;;;;6183158;23;20017;-91
2023/03/24 11:21:03;;;;;;;13.02;3.20;;;13.90;99.90;;;;;;6159416;23;20088;-96
2023/03/24 11:23:33;;;;;;;11.48;3.17;;;13.90;99.90;;;;;;6190038;23;20013;-96
2023/03/24 11:26:06;;;;;;;11.97;2.97;;;13.90;99.90;;;;;;6187683;23;20080;-94
2023/03/24 11:29:13;;;;;;;11.40;2.35;;;13.90;99.90;;;;;;6157732;23;20032;-93
2023/03/24 11:31:40;;;;;;;13.25;3.10;;;13.80;99.90;;;;;;6162607;23;20024;-92
2023/03/24 11:34:08;;;;;;;10.80;3.20;;;13.70;99.90;;;;;;6157444;23;20040;-91
2023/03/24 11:37:35;;;;;;;11.60;2.90;;;13.60;99.90;;;;;;6184933;23;20013;-90
2023/03/24 11:40:15;;;;;;;12.50;3.05;;;13.70;99.90;;;;;;6064990;23;20023;-90
2023/03/24 11:42:50;;;;;;;10.90;3.13;;;13.70;99.90;;;;;;6040949;23;20058;-90
2023/03/24 11:45:37;;;;;;;13.05;3.63;;;13.70;99.90;;;;;;6040898;23;20105;-95
2023/03/24 11:48:13;;;;;;;16.88;4.13;;;13.90;99.90;;;;;;6040198;23;20073;-89
2023/03/24 11:50:39;;;;;;;13.60;3.15;;;14.00;99.90;;;;;;6064065;23;20026;-88
2023/03/24 11:53:14;;;;;;;15.30;3.28;;;14.30;99.90;;;;;;6065076;23;20011;-90
2023/03/24 11:56:01;;;;;;;11.23;2.95;;;14.30;99.90;;;;;;6064679;23;20127;-89
2023/03/24 11:58:46;;;;;;;12.20;2.88;;;14.40;99.90;;;;;;6063992;23;20023;-88
2023/03/24 12:01:19;;;;;;;13.90;3.58;;;14.40;99.90;;;;;;6063752;23;20368;-88
2023/03/24 12:03:45;;;;;;;12.55;2.65;;;14.40;99.90;;;;;;6066936;23;20017;-88
2023/03/24 12:06:32;;;;;;;11.05;3.10;;;14.50;99.90;;;;;;6072306;23;20007;-88
2023/03/24 12:09:32;;;;;;;13.05;3.67;;;14.60;99.90;;;;;;6086660;23;20025;-92
2023/03/24 12:12:41;;;;;;;11.40;2.85;;;14.70;99.90;;;;;;6077954;23;20344;-95
2023/03/24 12:15:24;;;;;;;12.20;2.97;;;14.80;99.90;;;;;;6190879;23;19997;-95
2023/03/24 12:18:14;;;;;;;12.45;2.88;;;14.70;99.90;;;;;;6197170;23;20013;-95
2023/03/24 12:20:50;;;;;;;11.95;3.08;;;14.40;99.90;;;;;;6205976;23;20319;-96
2023/03/24 12:23:21;;;;;;;12.52;3.15;;;14.10;99.90;;;;;;6175507;23;20016;-95
2023/03/24 12:26:06;;;;;;;14.88;2.88;;;14.00;99.90;;;;;;6173903;23;20385;-96
2023/03/24 12:28:53;;;;;;;11.80;2.78;;;14.00;99.90;;;;;;6169474;23;20019;-93
2023/03/24 12:31:58;;;;;;;12.50;3.20;;;14.00;99.90;;;;;;6189326;23;20092;-95
2023/03/24 12:34:51;;;;;;;12.93;2.90;;;14.00;99.90;;;;;;6158332;23;20016;-94
2023/03/24 12:37:32;;;;;;;12.50;2.88;;;14.30;99.90;;;;;;6193438;23;20385;-95
2023/03/24 12:40:11;;;;;;;13.13;3.13;;;14.30;99.90;;;;;;6188397;23;20024;-92
2023/03/24 12:42:45;;;;;;;11.48;2.90;;;14.30;99.90;;;;;;6191902;23;20009;-96
2023/03/24 12:45:36;;;;;;;11.95;2.83;;;14.30;99.90;;;;;;6190914;23;20096;-95
2023/03/24 12:48:25;;;;;;;10.63;2.53;;;14.30;99.90;;;;;;6193950;23;20079;-96
2023/03/24 12:51:28;;;;;;;11.90;2.67;;;14.30;99.90;;;;;;6188656;23;20020;-91
2023/03/24 12:54:15;;;;;;;13.70;3.28;;;14.40;99.90;;;;;;6188035;23;20013;-90
2023/03/24 12:56:49;;;;;;;13.48;3.00;;;14.50;99.90;;;;;;6161197;23;20042;-92
2023/03/24 12:59:40;;;;;;;13.38;3.40;;;14.70;99.90;;;;;;6185274;23;20041;-93
2023/03/24 13:02:24;;;;;;;11.07;3.10;;;14.70;99.90;;;;;;6186789;23;20482;-91
2023/03/24 13:04:54;;;;;;;12.02;3.45;;;14.60;99.90;;;;;;6191785;23;20012;-90
2023/03/24 13:07:24;;;;;;;15.20;3.58;;;14.70;99.90;;;;;;6171495;23;20063;-91